createdAt,value
2022-09-07T00:01:40.118Z,70.46
2022-09-07T00:04:42.038Z,70.55
2022-09-07T00:07:44.073Z,70.59
2022-09-07T00:11:05.515Z,70.34
2022-09-07T00:14:08.096Z,70.26
2022-09-07T00:17:10.058Z,70.20
2022-09-07T00:20:12.801Z,70.79
2022-09-07T00:23:14.905Z,70.40
2022-09-07T00:26:20.671Z,70.65
2022-09-07T00:29:22.677Z,70.77
2022-09-07T00:32:24.766Z,70.44
2022-09-07T00:35:27.900Z,70.77
2022-09-07T00:38:30.027Z,70.18
2022-09-07T00:41:32.138Z,70.46
2022-09-07T00:44:42.954Z,70.28
2022-09-07T00:48:08.501Z,70.55
2022-09-07T00:51:18.584Z,71.07
2022-09-07T00:54:44.059Z,70.63
2022-09-07T00:57:50.679Z,70.42
2022-09-07T01:00:52.639Z,70.64
2022-09-07T01:03:57.540Z,70.93
2022-09-07T01:06:59.782Z,70.63
2022-09-07T01:10:02.334Z,70.68
2022-09-07T01:13:05.148Z,70.84
2022-09-07T01:16:22.811Z,71.13
2022-09-07T01:19:34.835Z,70.79
2022-09-07T01:22:45.961Z,71.39
2022-09-07T01:26:31.110Z,71.53
2022-09-07T01:29:44.607Z,72.38
2022-09-07T01:33:08.503Z,72.33
2022-09-07T01:36:36.458Z,72.43
2022-09-07T01:39:54.653Z,72.84
2022-09-07T01:43:04.255Z,72.69
2022-09-07T01:46:15.805Z,72.90
2022-09-07T01:49:23.025Z,73.15
2022-09-07T01:52:33.896Z,73.76
2022-09-07T01:55:41.442Z,73.34
2022-09-07T01:58:53.756Z,74.03
2022-09-07T02:02:08.262Z,73.98
2022-09-07T02:05:19.868Z,73.81
2022-09-07T02:08:32.328Z,74.04
2022-09-07T02:11:38.514Z,74.17
2022-09-07T02:14:51.887Z,73.91
2022-09-07T02:18:02.073Z,74.38
2022-09-07T02:21:07.503Z,73.74
2022-09-07T02:24:18.248Z,73.90
2022-09-07T02:27:34.383Z,74.04
2022-09-07T02:30:37.235Z,73.99
2022-09-07T02:33:39.425Z,73.70
2022-09-07T02:36:45.979Z,73.89
2022-09-07T02:39:49.508Z,73.82
2022-09-07T02:42:51.928Z,74.50
2022-09-07T02:46:27.222Z,74.52
2022-09-07T02:49:47.506Z,74.32
2022-09-07T02:53:04.506Z,74.35
2022-09-07T02:56:19.976Z,74.55
2022-09-07T02:59:43.514Z,74.47
2022-09-07T03:02:57.033Z,74.33
2022-09-07T03:06:03.612Z,74.24
2022-09-07T03:09:10.240Z,73.79
2022-09-07T03:12:12.920Z,73.72
2022-09-07T03:15:17.855Z,73.50
2022-09-07T03:18:19.964Z,73.53
2022-09-07T03:21:21.969Z,73.75
2022-09-07T03:24:23.895Z,74.62
2022-09-07T03:27:25.827Z,74.21
2022-09-07T03:30:27.741Z,73.89
2022-09-07T03:33:29.735Z,73.75
2022-09-07T03:36:33.005Z,73.72
2022-09-07T03:39:36.510Z,73.77
2022-09-07T03:42:39.271Z,73.73
2022-09-07T03:45:41.242Z,73.81
2022-09-07T03:48:43.185Z,73.63
2022-09-07T03:51:45.215Z,73.83
2022-09-07T03:54:47.354Z,73.69
2022-09-07T03:57:49.189Z,73.33
2022-09-07T04:00:51.254Z,73.07
2022-09-07T04:03:53.774Z,73.22
2022-09-07T04:06:55.818Z,72.94
2022-09-07T04:09:57.791Z,72.29
2022-09-07T04:12:59.734Z,71.96
2022-09-07T04:16:19.503Z,71.38
2022-09-07T04:19:21.845Z,70.67
2022-09-07T04:22:23.831Z,70.29
2022-09-07T04:25:25.798Z,69.96
2022-09-07T04:28:27.742Z,69.47
2022-09-07T04:31:30.311Z,69.26
2022-09-07T04:34:32.230Z,68.56
2022-09-07T04:37:34.131Z,68.26
2022-09-07T04:40:36.290Z,67.52
2022-09-07T04:43:39.839Z,67.07
2022-09-07T04:46:41.877Z,66.35
2022-09-07T04:49:43.934Z,66.24
2022-09-07T04:52:46.586Z,65.68
2022-09-07T04:55:48.569Z,64.97
2022-09-07T04:58:51.025Z,64.36
2022-09-07T05:01:53.054Z,63.68
2022-09-07T05:04:57.377Z,62.71
2022-09-07T05:08:02.758Z,61.99
2022-09-07T05:11:04.805Z,61.39
2022-09-07T05:14:07.194Z,60.24
2022-09-07T05:17:09.358Z,60.15
2022-09-07T05:20:11.326Z,59.93
2022-09-07T05:23:13.263Z,59.34
2022-09-07T05:26:15.113Z,58.49
2022-09-07T05:32:38.922Z,57.11
2022-09-07T05:35:40.923Z,56.24
2022-09-07T05:38:43.377Z,55.61
2022-09-07T05:41:45.270Z,55.28
2022-09-07T05:44:47.254Z,54.36
2022-09-07T05:47:50.904Z,54.15
2022-09-07T05:50:53.485Z,53.47
2022-09-07T05:53:56.397Z,52.59
2022-09-07T05:56:58.142Z,50.73
2022-09-07T06:00:00.123Z,51.21
2022-09-07T06:03:02.181Z,50.76
2022-09-07T06:06:07.165Z,50.12
2022-09-07T06:09:12.677Z,49.96
2022-09-07T06:12:14.611Z,49.38
2022-09-07T06:15:17.174Z,48.85
2022-09-07T06:18:19.107Z,48.13
2022-09-07T06:21:23.383Z,47.59
2022-09-07T06:24:25.268Z,46.94
2022-09-07T06:27:27.639Z,47.30
2022-09-07T06:30:29.730Z,46.57
2022-09-07T06:33:32.284Z,44.66
2022-09-07T06:36:34.419Z,45.05
2022-09-07T06:39:37.401Z,45.06
2022-09-07T06:42:39.541Z,43.68
2022-09-07T06:45:43.927Z,43.70
2022-09-07T06:48:46.283Z,42.48
2022-09-07T06:51:48.337Z,42.04
2022-09-07T06:57:59.448Z,40.93
2022-09-07T07:01:12.309Z,40.51
2022-09-07T07:04:14.468Z,41.18
2022-09-07T07:07:16.553Z,40.26
2022-09-07T07:10:23.596Z,39.93
2022-09-07T07:13:26.354Z,39.56
2022-09-07T07:16:28.310Z,39.08
2022-09-07T07:19:30.514Z,39.33
2022-09-07T07:22:47.655Z,39.31
2022-09-07T07:25:49.641Z,38.16
2022-09-07T07:31:59.484Z,36.53
2022-09-07T07:35:01.759Z,36.82
2022-09-07T07:48:15.175Z,37.54
2022-09-07T07:51:17.113Z,38.33
2022-09-07T07:54:21.482Z,37.74
2022-09-07T07:57:23.880Z,37.45
2022-09-07T08:00:37.736Z,36.89
2022-09-07T08:03:48.679Z,36.48
2022-09-07T08:06:50.492Z,35.71
2022-09-07T08:09:53.084Z,36.30
2022-09-07T08:12:54.973Z,36.15
2022-09-07T08:16:00.797Z,35.72
2022-09-07T08:19:02.692Z,36.11
2022-09-07T08:22:04.622Z,36.48
2022-09-07T08:25:07.583Z,37.09
2022-09-07T08:28:09.491Z,37.63
2022-09-07T08:31:14.155Z,37.28
2022-09-07T08:34:16.929Z,38.20
2022-09-07T08:37:18.618Z,38.74
2022-09-07T08:40:20.775Z,39.04
2022-09-07T08:43:37.633Z,38.94
2022-09-07T08:46:59.485Z,37.11
2022-09-07T08:50:11.465Z,38.72
2022-09-07T08:53:16.829Z,38.11
2022-09-07T08:56:18.767Z,37.74
2022-09-07T08:59:43.486Z,37.71
2022-09-07T09:02:45.992Z,37.10
2022-09-07T09:06:00.670Z,37.24
2022-09-07T09:09:17.812Z,36.87
2022-09-07T09:12:40.533Z,35.90
2022-09-07T09:15:53.129Z,36.99
2022-09-07T09:19:40.027Z,36.60
2022-09-07T09:22:43.102Z,36.36
2022-09-07T09:25:52.616Z,36.64
2022-09-07T09:28:55.241Z,35.59
2022-09-07T09:31:57.112Z,35.19
2022-09-07T09:35:12.173Z,35.45
2022-09-07T09:38:29.399Z,35.53
2022-09-07T09:41:38.601Z,35.95
2022-09-07T09:44:42.260Z,36.07
2022-09-07T09:47:50.227Z,35.39
2022-09-07T09:54:24.684Z,35.52
2022-09-07T10:01:27.293Z,34.34
2022-09-07T10:04:34.990Z,35.01
2022-09-07T10:07:36.944Z,34.06
2022-09-07T10:10:49.709Z,34.46
2022-09-07T10:13:59.466Z,33.48
2022-09-07T10:17:10.665Z,33.65
2022-09-07T10:20:18.943Z,34.47
2022-09-07T10:23:23.440Z,34.11
2022-09-07T10:26:34.960Z,32.30
2022-09-07T10:29:37.340Z,33.78
2022-09-07T10:32:46.756Z,32.78
2022-09-07T10:36:14.912Z,32.67
2022-09-07T10:39:45.091Z,33.26
2022-09-07T10:43:26.307Z,33.53
2022-09-07T10:50:33.650Z,33.87
2022-09-07T10:57:39.156Z,33.94
2022-09-07T11:01:06.855Z,33.23
2022-09-07T11:04:33.623Z,33.18
2022-09-07T11:07:44.635Z,33.77
2022-09-07T11:11:09.007Z,35.03
2022-09-07T11:14:19.462Z,34.00
2022-09-07T11:17:25.215Z,34.15
2022-09-07T11:20:30.280Z,34.04
2022-09-07T11:23:47.317Z,34.93
2022-09-07T11:26:56.750Z,34.23
2022-09-07T11:30:20.084Z,33.06
2022-09-07T11:33:27.065Z,33.84
2022-09-07T11:36:37.628Z,34.12
2022-09-07T11:39:45.047Z,34.59
2022-09-07T11:42:55.951Z,34.87
2022-09-07T11:46:01.188Z,35.10
2022-09-07T11:49:06.837Z,34.64
2022-09-07T11:52:23.171Z,34.20
2022-09-07T11:55:29.510Z,34.17
2022-09-07T11:58:43.628Z,33.80
2022-09-07T12:02:15.903Z,33.78
2022-09-07T12:05:25.241Z,34.42
2022-09-07T12:08:51.636Z,34.40
2022-09-07T12:12:08.331Z,33.22
2022-09-07T12:15:12.924Z,33.69
2022-09-07T12:18:41.882Z,33.02
2022-09-07T12:21:55.855Z,33.32
2022-09-07T12:25:08.604Z,34.72
2022-09-07T12:28:22.184Z,33.24
2022-09-07T12:32:52.325Z,34.12
2022-09-07T12:35:26.488Z,33.95
2022-09-07T12:38:31.248Z,34.80
2022-09-07T12:45:34.011Z,33.83
2022-09-07T12:48:46.832Z,34.60
2022-09-07T12:51:59.738Z,33.68
2022-09-07T12:55:29.269Z,34.83
2022-09-07T12:58:43.172Z,34.28
2022-09-07T13:01:45.105Z,34.21
2022-09-07T13:05:08.691Z,33.93
2022-09-07T13:08:41.605Z,33.80
2022-09-07T13:11:43.695Z,33.93
2022-09-07T13:14:52.129Z,33.42
2022-09-07T13:17:57.415Z,34.00
2022-09-07T13:21:30.638Z,35.11
2022-09-07T13:24:46.354Z,34.45
2022-09-07T13:27:58.600Z,34.89
2022-09-07T13:31:25.108Z,35.04
2022-09-07T13:34:53.340Z,35.41
2022-09-07T13:37:59.195Z,34.96
2022-09-07T13:41:07.413Z,34.93
2022-09-07T13:44:25.010Z,35.58
2022-09-07T13:47:33.869Z,35.41
2022-09-07T13:51:00.241Z,35.20
2022-09-07T13:54:20.151Z,35.29
2022-09-07T13:57:30.947Z,35.75
2022-09-07T14:00:34.178Z,35.83
2022-09-07T14:04:07.601Z,35.63
2022-09-07T14:07:20.851Z,35.80
2022-09-07T14:10:25.640Z,36.12
2022-09-07T14:13:27.701Z,36.32
2022-09-07T14:16:30.775Z,36.58
2022-09-07T14:19:39.745Z,36.79
2022-09-07T14:22:42.911Z,36.97
2022-09-07T14:29:22.371Z,38.00
2022-09-07T14:32:25.375Z,37.62
2022-09-07T14:35:32.585Z,37.77
2022-09-07T14:42:03.859Z,37.55
2022-09-07T14:45:22.044Z,37.32
2022-09-07T14:48:31.487Z,37.19
2022-09-07T14:51:36.732Z,37.33
2022-09-07T14:54:39.905Z,37.73
2022-09-07T14:57:41.718Z,37.83
2022-09-07T15:04:19.529Z,37.72
2022-09-07T15:07:40.981Z,38.53
2022-09-07T15:11:32.901Z,38.52
2022-09-07T15:14:19.895Z,38.78
2022-09-07T15:20:46.318Z,38.63
2022-09-07T15:23:57.082Z,38.72
2022-09-07T15:27:02.563Z,38.93
2022-09-07T15:30:05.244Z,39.00
2022-09-07T15:33:07.033Z,39.04
2022-09-07T15:36:14.741Z,39.16
2022-09-07T15:39:19.619Z,39.25
2022-09-07T15:45:43.539Z,39.39
2022-09-07T15:48:51.344Z,39.39
2022-09-07T15:52:08.419Z,39.45
2022-09-07T15:55:11.398Z,39.56
2022-09-07T15:58:13.219Z,39.89
2022-09-07T16:04:38.792Z,40.24
2022-09-07T16:11:18.532Z,40.98
2022-09-07T16:14:20.771Z,41.31
2022-09-07T16:17:26.897Z,41.38
2022-09-07T16:20:32.033Z,42.01
2022-09-07T16:23:34.272Z,43.00
2022-09-07T16:26:36.797Z,43.40
2022-09-07T16:29:38.903Z,44.07
2022-09-07T16:32:45.416Z,44.75
2022-09-07T16:36:01.618Z,45.68
2022-09-07T16:39:03.911Z,46.27
2022-09-07T16:42:06.454Z,47.18
2022-09-07T16:48:33.249Z,48.61
2022-09-07T16:51:35.828Z,49.16
2022-09-07T16:54:37.726Z,49.88
2022-09-07T17:01:02.696Z,51.16
2022-09-07T17:04:09.898Z,51.37
2022-09-07T17:07:14.997Z,51.59
2022-09-07T17:10:17.275Z,51.73
2022-09-07T17:13:20.214Z,52.55
2022-09-07T17:16:42.194Z,53.31
2022-09-07T17:19:44.452Z,53.32
2022-09-07T17:22:47.598Z,53.89
2022-09-07T17:25:49.886Z,54.96
2022-09-07T17:28:53.183Z,54.49
2022-09-07T17:35:26.741Z,54.62
2022-09-07T17:42:01.116Z,54.99
2022-09-07T17:45:04.354Z,55.32
2022-09-07T17:48:06.366Z,56.07
2022-09-07T17:51:11.986Z,56.46
2022-09-07T17:54:21.392Z,56.83
2022-09-07T17:57:23.286Z,57.43
2022-09-07T18:00:33.446Z,57.56
2022-09-07T18:03:37.973Z,57.69
2022-09-07T18:06:43.852Z,58.00
2022-09-07T18:09:47.112Z,58.56
2022-09-07T18:12:49.461Z,58.98
2022-09-07T18:15:55.778Z,59.31
2022-09-07T18:19:00.884Z,59.80
2022-09-07T18:22:03.984Z,60.32
2022-09-07T18:25:10.139Z,60.95
2022-09-07T18:31:35.314Z,60.75
2022-09-07T18:34:40.568Z,61.27
2022-09-07T18:37:42.985Z,61.00
2022-09-07T18:40:45.392Z,61.58
2022-09-07T18:43:48.105Z,63.02
2022-09-07T18:46:50.103Z,61.68
2022-09-07T18:49:52.125Z,61.40
2022-09-07T18:53:04.190Z,61.73
2022-09-07T18:56:21.234Z,62.06
2022-09-07T18:59:23.303Z,61.76
2022-09-07T19:02:26.928Z,62.05
2022-09-07T19:05:52.806Z,62.54
2022-09-07T19:08:55.966Z,62.21
2022-09-07T19:11:58.268Z,62.85
2022-09-07T19:15:00.781Z,61.92
2022-09-07T19:18:04.941Z,62.16
2022-09-07T19:21:12.333Z,62.45
2022-09-07T19:24:19.228Z,62.22
2022-09-07T19:27:21.188Z,62.42
2022-09-07T19:30:23.906Z,62.92
2022-09-07T19:33:26.454Z,62.92
2022-09-07T19:36:31.171Z,62.98
2022-09-07T19:39:33.292Z,62.90
2022-09-07T19:42:42.605Z,63.35
2022-09-07T19:45:45.000Z,63.33
2022-09-07T19:48:47.112Z,63.56
2022-09-07T19:51:52.034Z,63.32
2022-09-07T19:54:54.359Z,63.61
2022-09-07T19:57:56.225Z,63.89
2022-09-07T20:00:58.169Z,63.85
2022-09-07T20:04:03.420Z,64.37
2022-09-07T20:07:06.739Z,63.99
2022-09-07T20:10:09.005Z,64.43
2022-09-07T20:13:10.860Z,64.39
2022-09-07T20:16:16.453Z,64.39
2022-09-07T20:19:18.479Z,64.33
2022-09-07T20:22:20.405Z,64.58
2022-09-07T20:25:22.330Z,64.83
2022-09-07T20:28:24.483Z,64.73
2022-09-07T20:31:26.447Z,64.58
2022-09-07T20:34:28.857Z,64.77
2022-09-07T20:37:31.124Z,64.84
2022-09-07T20:40:33.607Z,64.86
2022-09-07T20:43:35.480Z,64.91
2022-09-07T20:46:37.372Z,64.67
2022-09-07T20:49:39.748Z,64.82
2022-09-07T20:52:41.728Z,64.82
2022-09-07T20:55:43.599Z,64.76
2022-09-07T20:58:46.839Z,65.10
2022-09-07T21:01:49.537Z,64.76
2022-09-07T21:04:51.479Z,65.00
2022-09-07T21:07:53.399Z,65.06
2022-09-07T21:10:55.280Z,65.29
2022-09-07T21:14:00.128Z,65.31
2022-09-07T21:17:01.995Z,65.32
2022-09-07T21:20:04.290Z,65.43
2022-09-07T21:23:06.196Z,65.60
2022-09-07T21:26:08.238Z,65.47
2022-09-07T21:29:15.206Z,65.42
2022-09-07T21:32:17.509Z,65.93
2022-09-07T21:35:19.805Z,65.97
2022-09-07T21:38:22.679Z,65.87
2022-09-07T21:41:25.496Z,65.86
2022-09-07T21:44:27.478Z,65.77
2022-09-07T21:47:29.356Z,66.06
2022-09-07T21:50:31.246Z,65.80
2022-09-07T21:53:33.637Z,65.90
2022-09-07T21:56:35.800Z,66.37
2022-09-07T21:59:37.653Z,66.20
2022-09-07T22:02:39.548Z,66.22
2022-09-07T22:05:41.421Z,66.32
2022-09-07T22:08:43.274Z,66.30
2022-09-07T22:11:46.166Z,66.52
2022-09-07T22:14:48.071Z,67.24
2022-09-07T22:17:53.517Z,66.39
2022-09-07T22:21:07.438Z,66.12
2022-09-07T22:24:11.791Z,66.39
2022-09-07T22:27:13.760Z,66.32
2022-09-07T22:30:15.856Z,66.04
2022-09-07T22:33:17.737Z,65.81
2022-09-07T22:36:26.192Z,65.98
2022-09-07T22:39:28.112Z,65.99
2022-09-07T22:42:29.970Z,66.24
2022-09-07T22:45:31.808Z,66.34
2022-09-07T22:48:33.868Z,66.33
2022-09-07T22:51:36.057Z,66.79
2022-09-07T22:54:38.166Z,66.64
2022-09-07T22:57:40.049Z,66.44
2022-09-07T23:00:43.047Z,66.46
2022-09-07T23:03:44.900Z,66.90
2022-09-07T23:06:46.845Z,66.45
2022-09-07T23:09:48.737Z,66.46
2022-09-07T23:12:52.977Z,66.71
2022-09-07T23:15:54.936Z,66.88
2022-09-07T23:19:00.442Z,66.83
2022-09-07T23:22:02.318Z,67.27
2022-09-07T23:25:04.668Z,67.10
2022-09-07T23:28:10.080Z,67.13
2022-09-07T23:31:12.012Z,67.17
2022-09-07T23:34:14.221Z,67.45
2022-09-07T23:37:16.027Z,67.18
2022-09-07T23:40:18.088Z,67.17
2022-09-07T23:43:20.025Z,67.37
2022-09-07T23:46:22.095Z,67.49
2022-09-07T23:49:24.152Z,67.73
2022-09-07T23:52:26.174Z,67.51
2022-09-07T23:55:32.438Z,67.62
2022-09-07T23:58:34.622Z,67.19
